createdAt,value
2023-04-02T00:02:21.688Z,63.59
2023-04-02T00:05:19.817Z,56.75
2023-04-02T00:08:29.991Z,56.35
2023-04-02T00:11:32.043Z,60.27
2023-04-02T00:14:33.554Z,66.94
2023-04-02T00:17:23.143Z,62.52
2023-04-02T00:20:17.951Z,55.29
2023-04-02T00:23:06.396Z,57.77
2023-04-02T00:25:52.575Z,62.03
2023-04-02T00:28:39.230Z,64.99
2023-04-02T00:31:26.183Z,59.51
2023-04-02T00:34:30.906Z,55.19
2023-04-02T00:37:23.885Z,59.52
2023-04-02T00:40:26.833Z,64.11
2023-04-02T00:43:16.880Z,65.14
2023-04-02T00:46:14.937Z,58.04
2023-04-02T00:49:22.693Z,53.25
2023-04-02T00:52:13.212Z,57.69
2023-04-02T00:55:16.319Z,60.49
2023-04-02T00:58:04.604Z,68.31
2023-04-02T01:00:52.198Z,62.04
2023-04-02T01:03:39.069Z,54.62
2023-04-02T01:06:30.229Z,56.17
2023-04-02T01:09:29.007Z,59.32
2023-04-02T01:12:27.840Z,67.38
2023-04-02T01:15:21.507Z,64.56
2023-04-02T01:18:26.676Z,54.63
2023-04-02T01:21:17.918Z,55.17
2023-04-02T01:24:07.387Z,59.13
2023-04-02T01:26:58.353Z,67.20
2023-04-02T01:29:51.949Z,63.57
2023-04-02T01:32:39.544Z,55.43
2023-04-02T01:35:31.198Z,56.16
2023-04-02T01:38:25.785Z,60.24
2023-04-02T01:41:24.083Z,67.16
2023-04-02T01:44:19.002Z,64.57
2023-04-02T01:47:12.186Z,55.38
2023-04-02T01:50:16.076Z,55.75
2023-04-02T01:53:14.915Z,58.50
2023-04-02T01:56:02.736Z,65.30
2023-04-02T01:58:50.101Z,64.95
2023-04-02T02:02:00.397Z,57.10
2023-04-02T02:04:48.855Z,54.61
2023-04-02T02:07:35.786Z,57.85
2023-04-02T02:10:30.180Z,60.16
2023-04-02T02:13:16.885Z,68.83
2023-04-02T02:16:04.603Z,62.73
2023-04-02T02:18:54.966Z,55.82
2023-04-02T02:21:45.768Z,55.88
2023-04-02T02:24:35.765Z,59.02
2023-04-02T02:27:24.576Z,64.29
2023-04-02T02:30:33.079Z,65.89
2023-04-02T02:33:44.717Z,57.28
2023-04-02T02:36:52.779Z,53.85
2023-04-02T02:39:44.157Z,58.09
2023-04-02T02:42:42.835Z,59.40
2023-04-02T02:45:35.898Z,65.82
2023-04-02T02:48:27.240Z,63.12
2023-04-02T02:51:21.983Z,53.74
2023-04-02T02:54:09.639Z,54.71
2023-04-02T02:57:06.454Z,57.00
2023-04-02T02:59:56.997Z,59.80
2023-04-02T03:02:44.822Z,67.55
2023-04-02T03:05:31.931Z,63.61
2023-04-02T03:08:33.484Z,53.98
2023-04-02T03:11:33.485Z,56.71
2023-04-02T03:14:45.523Z,57.67
2023-04-02T03:17:49.303Z,60.34
2023-04-02T03:20:40.912Z,67.13
2023-04-02T03:23:36.499Z,62.33
2023-04-02T03:26:40.902Z,54.30
2023-04-02T03:29:32.154Z,54.70
2023-04-02T03:32:24.219Z,59.23
2023-04-02T03:35:22.520Z,63.03
2023-04-02T03:38:25.787Z,64.32
2023-04-02T03:41:12.123Z,55.46
2023-04-02T03:44:07.759Z,56.65
2023-04-02T03:47:01.585Z,60.37
2023-04-02T03:49:56.801Z,65.73
2023-04-02T03:52:44.952Z,63.18
2023-04-02T03:55:37.241Z,54.05
2023-04-02T03:58:32.138Z,55.51
2023-04-02T04:01:23.288Z,59.92
2023-04-02T04:04:21.884Z,64.68
2023-04-02T04:07:15.851Z,65.75
2023-04-02T04:10:04.681Z,56.83
2023-04-02T04:12:54.527Z,55.76
2023-04-02T04:15:51.712Z,58.67
2023-04-02T04:18:50.002Z,65.28
2023-04-02T04:21:39.865Z,64.27
2023-04-02T04:24:32.857Z,57.43
2023-04-02T04:27:33.787Z,53.43
2023-04-02T04:30:28.525Z,57.22
2023-04-02T04:33:23.072Z,60.21
2023-04-02T04:36:29.184Z,69.13
2023-04-02T04:39:50.754Z,63.56
2023-04-02T04:42:41.561Z,53.46
2023-04-02T04:45:43.232Z,56.20
2023-04-02T04:48:47.537Z,60.10
2023-04-02T04:51:45.333Z,66.03
2023-04-02T04:54:38.351Z,60.40
2023-04-02T04:57:34.391Z,54.88
2023-04-02T05:00:49.666Z,55.46
2023-04-02T05:04:01.600Z,59.97
2023-04-02T05:06:57.646Z,66.57
2023-04-02T05:10:10.805Z,60.44
2023-04-02T05:13:05.808Z,52.67
2023-04-02T05:16:16.384Z,56.68
2023-04-02T05:19:21.217Z,59.65
2023-04-02T05:22:33.416Z,63.69
2023-04-02T05:25:23.692Z,62.89
2023-04-02T05:28:30.654Z,53.99
2023-04-02T05:31:42.200Z,53.87
2023-04-02T05:34:34.580Z,56.98
2023-04-02T05:37:26.354Z,63.15
2023-04-02T05:40:24.294Z,66.44
2023-04-02T05:43:18.020Z,58.55
2023-04-02T05:46:15.451Z,53.08
2023-04-02T05:49:08.697Z,55.57
2023-04-02T05:52:01.474Z,59.97
2023-04-02T05:54:57.810Z,60.52
2023-04-02T05:58:13.517Z,66.13
2023-04-02T06:01:02.719Z,62.18
2023-04-02T06:04:26.830Z,53.02
2023-04-02T06:07:18.444Z,55.34
2023-04-02T06:10:24.155Z,57.47
2023-04-02T06:13:17.862Z,63.45
2023-04-02T06:16:06.271Z,64.50
2023-04-02T06:18:53.662Z,54.68
2023-04-02T06:21:50.002Z,53.88
2023-04-02T06:24:41.273Z,58.01
2023-04-02T06:27:29.255Z,62.48
2023-04-02T06:30:41.202Z,66.27
2023-04-02T06:33:28.136Z,57.82
2023-04-02T06:36:15.019Z,52.16
2023-04-02T06:39:07.828Z,53.77
2023-04-02T06:42:16.587Z,59.23
2023-04-02T06:45:32.080Z,60.82
2023-04-02T06:48:52.736Z,66.64
2023-04-02T06:51:41.761Z,61.08
2023-04-02T06:54:29.292Z,52.99
2023-04-02T06:57:20.100Z,52.73
2023-04-02T07:00:34.403Z,55.78
2023-04-02T07:03:30.194Z,60.78
2023-04-02T07:06:21.318Z,65.91
2023-04-02T07:09:09.924Z,58.85
2023-04-02T07:11:59.561Z,52.34
2023-04-02T07:14:47.996Z,54.02
2023-04-02T07:17:34.616Z,58.85
2023-04-02T07:20:30.953Z,60.99
2023-04-02T07:23:21.225Z,65.22
2023-04-02T07:26:13.075Z,61.08
2023-04-02T07:28:59.684Z,54.82
2023-04-02T07:31:46.569Z,56.23
2023-04-02T07:34:33.338Z,58.53
2023-04-02T07:37:20.376Z,61.13
2023-04-02T07:40:11.894Z,66.37
2023-04-02T07:42:58.138Z,62.82
2023-04-02T07:45:44.835Z,53.42
2023-04-02T07:48:31.931Z,54.97
2023-04-02T07:51:24.411Z,58.67
2023-04-02T07:54:11.267Z,59.95
2023-04-02T07:56:57.754Z,65.68
2023-04-02T07:59:44.200Z,59.22
2023-04-02T08:02:30.757Z,54.12
2023-04-02T08:05:18.150Z,55.47
2023-04-02T08:08:04.900Z,58.66
2023-04-02T08:10:51.689Z,61.15
2023-04-02T08:13:38.837Z,65.36
2023-04-02T08:16:25.777Z,60.29
2023-04-02T08:19:12.756Z,50.32
2023-04-02T08:21:59.472Z,53.24
2023-04-02T08:24:45.893Z,57.80
2023-04-02T08:27:32.208Z,56.94
2023-04-02T08:30:19.205Z,59.52
2023-04-02T08:33:05.610Z,61.80
2023-04-02T08:35:52.451Z,62.00
2023-04-02T08:38:38.967Z,62.23
2023-04-02T08:41:32.290Z,53.80
2023-04-02T08:44:29.684Z,52.60
2023-04-02T08:47:20.427Z,56.21
2023-04-02T08:50:23.184Z,56.94
2023-04-02T08:53:24.614Z,59.15
2023-04-02T08:56:18.138Z,60.32
2023-04-02T08:59:22.832Z,61.06
2023-04-02T09:02:46.973Z,59.92
2023-04-02T09:05:37.757Z,61.61
2023-04-02T09:08:26.467Z,61.68
2023-04-02T09:11:23.810Z,61.76
2023-04-02T09:14:18.560Z,63.35
2023-04-02T09:17:12.638Z,59.28
2023-04-02T09:20:12.689Z,54.14
2023-04-02T09:22:59.497Z,54.79
2023-04-02T09:26:02.908Z,56.09
2023-04-02T09:28:55.361Z,57.85
2023-04-02T09:31:46.637Z,59.75
2023-04-02T09:34:36.146Z,58.96
2023-04-02T09:37:25.703Z,60.84
2023-04-02T09:40:32.603Z,60.67
2023-04-02T09:43:28.325Z,59.69
2023-04-02T09:46:25.927Z,58.34
2023-04-02T09:49:16.434Z,58.80
2023-04-02T09:52:06.184Z,59.36
2023-04-02T09:55:29.174Z,59.76
2023-04-02T09:58:17.566Z,59.08
2023-04-02T10:01:05.185Z,59.43
2023-04-02T10:03:52.102Z,60.17
2023-04-02T10:06:49.535Z,60.96
2023-04-02T10:09:38.604Z,61.18
2023-04-02T10:12:27.018Z,60.55
2023-04-02T10:15:23.416Z,59.71
2023-04-02T10:18:21.802Z,59.80
2023-04-02T10:21:12.945Z,59.79
2023-04-02T10:23:59.805Z,59.38
2023-04-02T10:27:29.836Z,59.78
2023-04-02T10:30:27.333Z,59.49
2023-04-02T10:33:22.278Z,58.84
2023-04-02T10:36:19.673Z,58.75
2023-04-02T10:39:25.631Z,59.02
2023-04-02T10:42:28.410Z,58.68
2023-04-02T10:45:17.585Z,59.44
2023-04-02T10:48:25.460Z,58.76
2023-04-02T10:51:46.441Z,58.84
2023-04-02T10:54:52.642Z,59.74
2023-04-02T10:57:43.328Z,59.30
2023-04-02T11:00:34.767Z,59.44
2023-04-02T11:03:34.294Z,58.11
2023-04-02T11:06:32.424Z,57.79
2023-04-02T11:09:24.825Z,58.65
2023-04-02T11:12:24.539Z,58.17
2023-04-02T11:15:18.118Z,57.37
2023-04-02T11:18:04.931Z,57.49
2023-04-02T11:20:56.339Z,56.69
2023-04-02T11:24:03.001Z,55.70
2023-04-02T11:26:50.606Z,55.93
2023-04-02T11:30:06.420Z,55.68
2023-04-02T11:32:54.333Z,56.25
2023-04-02T11:35:41.163Z,56.34
2023-04-02T11:38:29.241Z,55.76
2023-04-02T11:41:55.546Z,56.48
2023-04-02T11:44:42.223Z,55.22
2023-04-02T11:47:30.447Z,54.49
2023-04-02T11:50:28.957Z,54.80
2023-04-02T11:53:22.861Z,54.74
2023-04-02T11:56:43.006Z,53.12
2023-04-02T11:59:55.608Z,54.00
2023-04-02T12:02:55.821Z,53.10
2023-04-02T12:05:54.710Z,52.88
2023-04-02T12:09:18.904Z,53.16
2023-04-02T12:12:24.559Z,52.76
2023-04-02T12:15:27.107Z,52.78
2023-04-02T12:18:21.909Z,52.14
2023-04-02T12:21:14.528Z,52.51
2023-04-02T12:24:03.305Z,52.14
2023-04-02T12:27:06.778Z,51.22
2023-04-02T12:29:55.078Z,50.45
2023-04-02T12:32:41.916Z,51.09
2023-04-02T12:35:34.489Z,51.16
2023-04-02T12:38:22.984Z,50.76
2023-04-02T12:41:27.168Z,51.31
2023-04-02T12:44:18.800Z,51.39
2023-04-02T12:47:05.489Z,51.90
2023-04-02T12:49:53.024Z,51.11
2023-04-02T12:52:45.999Z,50.87
2023-04-02T12:55:33.633Z,51.52
2023-04-02T12:58:41.154Z,50.46
2023-04-02T13:01:29.830Z,50.61
2023-04-02T13:04:16.596Z,51.22
2023-04-02T13:07:03.535Z,51.36
2023-04-02T13:09:55.606Z,51.14
2023-04-02T13:12:42.133Z,51.09
2023-04-02T13:15:34.407Z,50.84
2023-04-02T13:18:23.099Z,50.70
2023-04-02T13:21:19.492Z,50.68
2023-04-02T13:24:16.987Z,50.54
2023-04-02T13:27:03.898Z,50.60
2023-04-02T13:29:50.719Z,49.63
2023-04-02T13:32:38.199Z,48.84
2023-04-02T13:35:24.940Z,48.82
2023-04-02T13:38:11.275Z,49.57
2023-04-02T13:40:57.596Z,49.08
2023-04-02T13:43:43.876Z,46.85
2023-04-02T13:46:33.639Z,45.25
2023-04-02T13:49:20.937Z,41.73
2023-04-02T13:52:15.571Z,42.29
2023-04-02T13:55:04.280Z,40.50
2023-04-02T13:57:50.679Z,41.19
2023-04-02T14:00:37.978Z,41.56
2023-04-02T14:03:24.603Z,42.39
2023-04-02T14:06:42.494Z,42.20
2023-04-02T14:09:31.842Z,43.88
2023-04-02T14:12:47.408Z,44.66
2023-04-02T14:15:40.489Z,44.40
2023-04-02T14:18:29.807Z,42.62
2023-04-02T14:21:22.179Z,41.73
2023-04-02T14:24:37.804Z,42.36
2023-04-02T14:27:27.105Z,42.16
2023-04-02T14:30:34.107Z,38.49
2023-04-02T14:33:36.083Z,36.63
2023-04-02T14:37:04.920Z,34.95
2023-04-02T14:39:57.481Z,34.41
2023-04-02T14:42:47.301Z,33.70
2023-04-02T14:46:02.817Z,32.16
2023-04-02T14:49:26.708Z,29.98
2023-04-02T14:52:18.802Z,30.24
2023-04-02T14:55:14.518Z,29.18
2023-04-02T14:58:04.668Z,27.78
2023-04-02T15:01:00.408Z,26.45
2023-04-02T15:03:58.411Z,26.04
2023-04-02T15:06:50.458Z,25.25
2023-04-02T15:09:49.269Z,24.55
2023-04-02T15:12:38.826Z,24.81
2023-04-02T15:15:54.246Z,23.84
2023-04-02T15:18:40.882Z,24.71
2023-04-02T15:21:34.296Z,25.03
2023-04-02T15:24:31.072Z,24.84
2023-04-02T15:27:35.620Z,23.57
2023-04-02T15:30:29.364Z,24.51
2023-04-02T15:33:27.750Z,25.15
2023-04-02T15:36:48.251Z,26.89
2023-04-02T15:39:39.251Z,28.61
2023-04-02T15:42:33.293Z,28.59
2023-04-02T15:45:30.428Z,29.15
2023-04-02T15:48:46.775Z,30.55
2023-04-02T15:51:50.343Z,31.61
2023-04-02T15:54:36.678Z,32.78
2023-04-02T15:57:54.716Z,33.94
2023-04-02T16:01:11.835Z,35.53
2023-04-02T16:04:29.915Z,36.65
2023-04-02T16:07:36.251Z,38.37
2023-04-02T16:10:41.220Z,39.48
2023-04-02T16:13:37.981Z,39.11
2023-04-02T16:16:34.794Z,40.26
2023-04-02T16:19:30.728Z,40.79
2023-04-02T16:22:20.450Z,41.49
2023-04-02T16:25:16.735Z,41.61
2023-04-02T16:28:26.551Z,42.84
2023-04-02T16:31:19.298Z,42.20
2023-04-02T16:34:17.671Z,42.25
2023-04-02T16:37:16.567Z,42.63
2023-04-02T16:40:33.381Z,43.03
2023-04-02T16:43:32.475Z,43.19
2023-04-02T16:46:44.228Z,43.33
2023-04-02T16:49:40.814Z,43.33
2023-04-02T16:52:54.714Z,43.67
2023-04-02T16:55:59.571Z,43.69
2023-04-02T16:59:19.754Z,43.78
2023-04-02T17:02:27.510Z,44.23
2023-04-02T17:05:32.555Z,44.47
2023-04-02T17:08:27.562Z,44.81
2023-04-02T17:11:24.264Z,45.63
2023-04-02T17:14:28.450Z,45.30
2023-04-02T17:17:16.901Z,46.10
2023-04-02T17:20:12.842Z,47.18
2023-04-02T17:23:02.742Z,47.31
2023-04-02T17:25:57.876Z,47.44
2023-04-02T17:28:47.506Z,47.62
2023-04-02T17:31:35.904Z,47.60
2023-04-02T17:34:24.011Z,47.80
2023-04-02T17:37:35.050Z,48.11
2023-04-02T17:40:48.086Z,48.73
2023-04-02T17:43:40.069Z,48.78
2023-04-02T17:46:41.472Z,48.69
2023-04-02T17:49:36.861Z,48.75
2023-04-02T17:52:39.752Z,48.74
2023-04-02T17:55:45.074Z,48.99
2023-04-02T17:58:50.059Z,49.21
2023-04-02T18:01:55.869Z,48.98
2023-04-02T18:05:04.299Z,49.10
2023-04-02T18:08:33.249Z,49.73
2023-04-02T18:11:36.859Z,50.02
2023-04-02T18:14:29.451Z,50.10
2023-04-02T18:17:35.695Z,50.16
2023-04-02T18:20:28.346Z,49.98
2023-04-02T18:23:26.524Z,50.47
2023-04-02T18:26:18.750Z,51.37
2023-04-02T18:29:29.614Z,51.00
2023-04-02T18:32:49.817Z,51.30
2023-04-02T18:36:19.087Z,50.95
2023-04-02T18:39:13.183Z,51.59
2023-04-02T18:42:23.178Z,51.69
2023-04-02T18:45:48.551Z,51.90
2023-04-02T18:48:57.657Z,52.33
2023-04-02T18:51:44.202Z,52.59
2023-04-02T18:54:40.548Z,52.80
2023-04-02T18:57:34.138Z,53.15
2023-04-02T19:00:34.523Z,53.17
2023-04-02T19:03:41.557Z,54.24
2023-04-02T19:06:42.532Z,54.11
2023-04-02T19:09:36.559Z,54.88
2023-04-02T19:12:24.280Z,55.46
2023-04-02T19:15:18.780Z,55.56
2023-04-02T19:18:20.392Z,55.46
2023-04-02T19:21:17.353Z,55.92
2023-04-02T19:24:22.763Z,55.28
2023-04-02T19:27:33.524Z,55.57
2023-04-02T19:30:49.705Z,55.87
2023-04-02T19:33:55.741Z,56.63
2023-04-02T19:36:57.481Z,57.21
2023-04-02T19:40:13.918Z,57.88
2023-04-02T19:43:00.610Z,57.95
2023-04-02T19:45:49.206Z,58.00
2023-04-02T19:48:44.747Z,58.40
2023-04-02T19:51:31.582Z,58.60
2023-04-02T19:54:18.766Z,59.23
2023-04-02T19:57:06.118Z,59.51
2023-04-02T19:59:52.777Z,59.88
2023-04-02T20:02:39.499Z,59.97
2023-04-02T20:05:26.247Z,59.96
2023-04-02T20:08:12.957Z,60.72
2023-04-02T20:11:00.211Z,60.64
2023-04-02T20:13:47.880Z,60.59
2023-04-02T20:16:36.715Z,61.42
2023-04-02T20:19:23.220Z,61.23
2023-04-02T20:22:09.582Z,65.00
2023-04-02T20:24:56.237Z,65.66
2023-04-02T20:27:42.874Z,51.00
2023-04-02T20:30:32.387Z,50.84
2023-04-02T20:33:22.210Z,52.19
2023-04-02T20:36:17.017Z,54.68
2023-04-02T20:39:07.193Z,56.85
2023-04-02T20:41:53.822Z,57.90
2023-04-02T20:44:41.502Z,59.43
2023-04-02T20:47:27.735Z,60.39
2023-04-02T20:50:14.546Z,60.62
2023-04-02T20:53:01.642Z,61.70
2023-04-02T20:55:48.260Z,61.95
2023-04-02T20:58:36.171Z,68.60
2023-04-02T21:01:25.343Z,68.35
2023-04-02T21:04:13.084Z,55.54
2023-04-02T21:06:59.560Z,48.83
2023-04-02T21:09:45.877Z,51.30
2023-04-02T21:12:32.317Z,53.19
2023-04-02T21:15:18.799Z,55.45
2023-04-02T21:18:05.241Z,57.40
2023-04-02T21:21:06.410Z,58.31
2023-04-02T21:24:01.117Z,59.36
2023-04-02T21:26:47.689Z,60.07
2023-04-02T21:29:34.402Z,61.49
2023-04-02T21:32:21.987Z,66.50
2023-04-02T21:35:09.223Z,69.18
2023-04-02T21:37:56.197Z,54.56
2023-04-02T21:40:42.670Z,51.64
2023-04-02T21:43:29.301Z,54.14
2023-04-02T21:46:19.002Z,56.20
2023-04-02T21:49:08.141Z,57.98
2023-04-02T21:51:54.816Z,59.16
2023-04-02T21:54:41.349Z,60.38
2023-04-02T21:57:28.148Z,67.43
2023-04-02T22:00:15.705Z,60.97
2023-04-02T22:03:02.298Z,51.93
2023-04-02T22:05:48.933Z,52.39
2023-04-02T22:08:35.979Z,55.21
2023-04-02T22:11:26.614Z,56.77
2023-04-02T22:14:13.767Z,58.77
2023-04-02T22:17:00.746Z,60.73
2023-04-02T22:19:47.477Z,60.96
2023-04-02T22:22:33.650Z,68.85
2023-04-02T22:25:19.952Z,63.97
2023-04-02T22:28:06.218Z,52.19
2023-04-02T22:30:53.437Z,51.39
2023-04-02T22:33:41.525Z,53.88
2023-04-02T22:36:29.888Z,56.01
2023-04-02T22:39:17.106Z,57.15
2023-04-02T22:42:03.885Z,58.14
2023-04-02T22:44:50.393Z,60.80
2023-04-02T22:47:36.760Z,72.29
2023-04-02T22:50:23.087Z,62.47
2023-04-02T22:53:11.994Z,50.06
2023-04-02T22:56:13.337Z,50.86
2023-04-02T22:59:00.837Z,53.54
2023-04-02T23:01:47.599Z,56.27
2023-04-02T23:04:34.410Z,58.97
2023-04-02T23:07:20.652Z,60.43
2023-04-02T23:10:07.601Z,67.23
2023-04-02T23:12:54.425Z,67.74
2023-04-02T23:15:44.730Z,54.44
2023-04-02T23:18:33.217Z,50.48
2023-04-02T23:21:21.250Z,54.00
2023-04-02T23:24:07.483Z,56.18
2023-04-02T23:26:54.222Z,59.60
2023-04-02T23:29:40.656Z,62.79
2023-04-02T23:32:26.903Z,69.17
2023-04-02T23:35:13.491Z,58.74
2023-04-02T23:38:00.035Z,50.05
2023-04-02T23:40:46.476Z,52.87
2023-04-02T23:43:33.328Z,54.78
2023-04-02T23:46:20.684Z,58.47
2023-04-02T23:49:11.252Z,61.16
2023-04-02T23:51:58.045Z,69.08
2023-04-02T23:54:44.399Z,62.77
2023-04-02T23:57:30.924Z,51.04
